Time;durP1;ratioP1;P1;durP2;ratioP2;P2;SDS_P1;SDS_P2;PMS_P1;PMS_P2;Temp;Humidity;BMP_temperature;BMP_pressure;BME280_temperature;BME280_humidity;BME280_pressure;Samples;Min_cycle;Max_cycle;Signal;HPM_P1;HPM_P2
2021/10/19 00:00:23;;;;;;;68.68;45.35;;;14.70;75.10;;;;;;4954515;28;20062;-63
2021/10/19 00:02:49;;;;;;;59.88;44.17;;;14.80;74.90;;;;;;4952515;29;20046;-63
2021/10/19 00:05:15;;;;;;;63.08;45.35;;;14.70;74.90;;;;;;4954059;28;20053;-63
2021/10/19 00:07:41;;;;;;;59.95;44.42;;;14.70;74.70;;;;;;4953524;28;20039;-63
2021/10/19 00:10:08;;;;;;;59.70;42.83;;;14.80;74.70;;;;;;4951830;29;20114;-63
2021/10/19 00:12:34;;;;;;;60.50;44.42;;;14.70;74.60;;;;;;4952845;29;20553;-63
2021/10/19 00:15:00;;;;;;;67.45;43.22;;;14.70;74.30;;;;;;4953772;29;20035;-63
2021/10/19 00:17:25;;;;;;;64.30;43.30;;;14.70;74.00;;;;;;4954958;29;20047;-63
2021/10/19 00:19:51;;;;;;;55.67;42.63;;;14.70;74.00;;;;;;4952980;28;20106;-63
2021/10/19 00:23:12;;;;;;;60.92;43.47;;;14.70;74.10;;;;;;4937460;29;20039;-63
2021/10/19 00:25:38;;;;;;;61.75;43.45;;;14.70;75.00;;;;;;4937183;29;20039;-63
2021/10/19 00:28:04;;;;;;;57.80;42.45;;;14.70;74.50;;;;;;4954688;29;20114;-63
2021/10/19 00:30:31;;;;;;;65.22;45.13;;;14.60;74.40;;;;;;4953258;29;20043;-63
2021/10/19 00:32:57;;;;;;;58.13;42.95;;;14.70;74.60;;;;;;4954664;29;20031;-63
2021/10/19 00:35:22;;;;;;;61.10;42.70;;;14.70;74.20;;;;;;4920837;29;20046;-63
2021/10/19 00:37:48;;;;;;;65.07;43.78;;;14.60;74.30;;;;;;4935662;29;20043;-63
2021/10/19 00:40:14;;;;;;;60.50;42.85;;;14.50;74.00;;;;;;4949551;29;20093;-64
2021/10/19 00:42:40;;;;;;;53.72;40.58;;;14.60;74.40;;;;;;4954549;29;20031;-64
2021/10/19 00:45:07;;;;;;;54.67;41.55;;;14.60;74.20;;;;;;4953726;29;20039;-63
2021/10/19 00:47:34;;;;;;;54.40;41.05;;;14.60;74.20;;;;;;4954653;29;20493;-63
2021/10/19 00:50:00;;;;;;;59.35;41.10;;;14.60;74.40;;;;;;4952596;29;20039;-63
2021/10/19 00:52:26;;;;;;;54.72;41.28;;;14.60;74.50;;;;;;4937306;29;20118;-63
2021/10/19 00:54:52;;;;;;;53.58;39.97;;;14.50;74.50;;;;;;4953276;29;20036;-63
2021/10/19 00:57:18;;;;;;;51.35;41.13;;;14.50;74.50;;;;;;4953555;29;20434;-63
2021/10/19 00:59:45;;;;;;;56.83;41.92;;;14.50;74.30;;;;;;4926745;29;20040;-63
2021/10/19 01:02:15;;;;;;;58.35;42.13;;;14.50;74.50;;;;;;4918269;29;20047;-63
2021/10/19 01:04:42;;;;;;;58.03;40.65;;;14.50;74.80;;;;;;4944535;29;20035;-63
2021/10/19 01:07:08;;;;;;;52.95;38.65;;;14.50;75.10;;;;;;4937216;29;20119;-63
2021/10/19 01:09:37;;;;;;;52.15;38.25;;;14.50;75.80;;;;;;4953243;29;20039;-62
2021/10/19 01:12:07;;;;;;;54.05;39.00;;;14.40;76.00;;;;;;4937125;29;20031;-62
2021/10/19 01:14:33;;;;;;;50.88;38.45;;;14.30;76.10;;;;;;4952128;28;20039;-62
2021/10/19 01:16:59;;;;;;;56.08;39.38;;;14.30;76.30;;;;;;4952046;29;20047;-62
2021/10/19 01:19:25;;;;;;;53.40;38.75;;;14.30;75.30;;;;;;4953440;28;20106;-62
2021/10/19 01:21:59;;;;;;;49.42;39.85;;;14.20;75.10;;;;;;4957818;29;20082;-62
2021/10/19 01:24:25;;;;;;;54.05;40.05;;;14.30;75.20;;;;;;4956462;29;20055;-62
2021/10/19 01:27:06;;;;;;;49.95;37.53;;;14.30;74.70;;;;;;4935794;29;20063;-62
2021/10/19 01:29:32;;;;;;;53.03;38.47;;;14.30;75.30;;;;;;4950676;29;20035;-62
2021/10/19 01:31:57;;;;;;;47.05;38.40;;;14.30;74.80;;;;;;4957841;29;20051;-62
2021/10/19 01:34:23;;;;;;;48.95;38.40;;;14.30;75.60;;;;;;4950732;29;20040;-63
2021/10/19 01:36:49;;;;;;;50.35;38.17;;;14.30;74.80;;;;;;4938230;29;20042;-63
2021/10/19 01:39:15;;;;;;;51.03;38.30;;;14.30;74.90;;;;;;4942144;29;20478;-63
2021/10/19 01:41:42;;;;;;;49.42;37.42;;;14.20;75.00;;;;;;4956152;29;20087;-63
2021/10/19 01:44:09;;;;;;;46.50;36.67;;;14.20;75.50;;;;;;4953478;28;20067;-62
2021/10/19 01:46:34;;;;;;;50.92;37.13;;;14.20;75.10;;;;;;4957340;29;20064;-62
2021/10/19 01:49:00;;;;;;;48.63;35.65;;;14.20;75.60;;;;;;4956562;29;20043;-62
2021/10/19 01:51:31;;;;;;;47.47;37.80;;;14.10;75.60;;;;;;4957192;29;20118;-62
2021/10/19 01:53:57;;;;;;;50.30;38.50;;;14.10;75.70;;;;;;4938689;29;20437;-62
2021/10/19 01:56:23;;;;;;;51.00;37.83;;;14.20;75.80;;;;;;4956188;28;20429;-62
2021/10/19 01:58:49;;;;;;;43.90;36.30;;;14.20;75.70;;;;;;4956039;29;20043;-62
2021/10/19 02:01:14;;;;;;;48.15;36.92;;;14.20;75.60;;;;;;4957062;29;20114;-63
2021/10/19 02:03:40;;;;;;;50.67;37.45;;;14.20;75.40;;;;;;4954678;29;20043;-63
2021/10/19 02:06:06;;;;;;;46.00;36.22;;;14.20;75.40;;;;;;4937640;28;20493;-62
2021/10/19 02:08:33;;;;;;;50.47;36.60;;;14.20;75.80;;;;;;4936312;29;20115;-62
2021/10/19 02:11:48;;;;;;;46.97;35.47;;;14.20;75.70;;;;;;4952705;29;20074;-62
2021/10/19 02:14:13;;;;;;;48.33;34.60;;;14.20;76.50;;;;;;4953731;28;20043;-62
2021/10/19 02:16:39;;;;;;;44.10;35.28;;;14.20;75.80;;;;;;4956912;29;20255;-62
2021/10/19 02:19:05;;;;;;;46.17;36.40;;;14.10;75.80;;;;;;4938354;29;20560;-62
2021/10/19 02:21:30;;;;;;;49.42;34.20;;;14.20;75.90;;;;;;4956682;29;20122;-62
2021/10/19 02:23:56;;;;;;;46.13;35.97;;;14.20;75.90;;;;;;4955839;29;20077;-62
2021/10/19 02:26:22;;;;;;;47.97;37.03;;;14.20;75.80;;;;;;4956551;29;20079;-62
2021/10/19 02:28:47;;;;;;;44.15;33.90;;;14.20;75.90;;;;;;4955674;29;20042;-62
2021/10/19 02:31:13;;;;;;;49.63;35.33;;;14.10;76.00;;;;;;4955072;28;20035;-62
2021/10/19 02:33:38;;;;;;;45.90;34.53;;;14.20;76.10;;;;;;4956428;29;20486;-62
2021/10/19 02:36:04;;;;;;;46.75;36.90;;;14.10;75.80;;;;;;4955255;29;20027;-62
2021/10/19 02:38:30;;;;;;;46.45;35.25;;;14.20;75.80;;;;;;4955655;28;20134;-62
2021/10/19 02:40:55;;;;;;;44.05;34.88;;;14.10;75.70;;;;;;4955132;29;20038;-62
2021/10/19 02:43:21;;;;;;;51.67;37.75;;;14.10;76.00;;;;;;4938085;29;20043;-62
2021/10/19 02:45:47;;;;;;;48.83;36.40;;;14.10;76.10;;;;;;4955079;29;20090;-62
2021/10/19 02:48:12;;;;;;;40.97;33.25;;;14.20;76.00;;;;;;4955313;29;20094;-62
2021/10/19 02:50:38;;;;;;;46.95;35.10;;;14.20;76.00;;;;;;4925597;29;20032;-62
2021/10/19 02:53:04;;;;;;;47.95;34.65;;;14.20;75.80;;;;;;4937968;29;20050;-62
2021/10/19 02:55:32;;;;;;;42.55;32.97;;;14.10;76.00;;;;;;4953800;29;20112;-62
2021/10/19 02:57:58;;;;;;;40.95;33.50;;;14.10;75.80;;;;;;4955790;29;20051;-62
2021/10/19 03:00:23;;;;;;;47.17;35.28;;;14.10;75.70;;;;;;4957029;28;20110;-62
2021/10/19 03:02:49;;;;;;;47.38;37.08;;;14.00;76.00;;;;;;4965579;28;20093;-62
2021/10/19 03:05:15;;;;;;;52.35;39.08;;;14.00;76.30;;;;;;4954462;28;20031;-62
2021/10/19 03:07:41;;;;;;;49.28;41.03;;;14.10;76.50;;;;;;4956785;28;20429;-62
2021/10/19 03:10:07;;;;;;;55.90;41.10;;;14.00;76.10;;;;;;4957611;28;20071;-62
2021/10/19 03:12:33;;;;;;;56.92;40.25;;;14.00;76.30;;;;;;4955583;29;20035;-64
2021/10/19 03:14:58;;;;;;;55.60;41.65;;;14.00;76.40;;;;;;4953332;29;20039;-63
2021/10/19 03:17:24;;;;;;;59.22;41.28;;;14.00;76.50;;;;;;4937758;29;20080;-62
2021/10/19 03:19:50;;;;;;;60.03;43.50;;;14.00;76.30;;;;;;4954149;29;20536;-62
2021/10/19 03:22:15;;;;;;;64.53;46.08;;;14.00;76.30;;;;;;4938147;29;20181;-62
2021/10/19 03:24:41;;;;;;;65.78;46.20;;;13.90;76.40;;;;;;4954313;29;20400;-62
2021/10/19 03:27:06;;;;;;;65.97;46.60;;;14.00;76.60;;;;;;4955286;29;20114;-62
2021/10/19 03:29:33;;;;;;;65.05;47.42;;;14.00;76.30;;;;;;4954183;29;20039;-62
2021/10/19 03:31:59;;;;;;;62.60;45.15;;;14.00;76.20;;;;;;4955562;29;20493;-62
2021/10/19 03:34:25;;;;;;;62.40;44.30;;;14.00;76.10;;;;;;4936784;28;20079;-62
2021/10/19 03:36:50;;;;;;;63.40;46.40;;;14.00;75.90;;;;;;4952845;29;20039;-62
2021/10/19 03:39:16;;;;;;;56.10;41.85;;;14.00;76.00;;;;;;4952872;29;20051;-62
2021/10/19 03:41:42;;;;;;;55.72;42.38;;;14.00;76.40;;;;;;4954000;28;20378;-62
2021/10/19 03:44:08;;;;;;;55.67;41.10;;;13.90;76.60;;;;;;4954964;29;20446;-62
2021/10/19 03:46:34;;;;;;;59.22;42.28;;;13.90;77.00;;;;;;4953968;29;20035;-62
2021/10/19 03:49:00;;;;;;;57.33;42.58;;;13.90;78.00;;;;;;4955221;29;20511;-63
2021/10/19 03:51:25;;;;;;;60.22;44.70;;;13.80;79.70;;;;;;4953834;29;20043;-62
2021/10/19 03:53:52;;;;;;;61.40;43.63;;;13.80;81.00;;;;;;4947481;29;20393;-62
2021/10/19 03:56:18;;;;;;;55.67;42.28;;;13.70;82.70;;;;;;4935822;29;20509;-62
2021/10/19 03:58:43;;;;;;;57.75;42.83;;;13.70;83.80;;;;;;4935622;29;20076;-62
2021/10/19 04:01:09;;;;;;;58.05;42.22;;;13.70;80.60;;;;;;4948487;29;20392;-63
2021/10/19 04:03:34;;;;;;;57.53;42.15;;;13.60;79.40;;;;;;4950844;29;20079;-62
2021/10/19 04:06:00;;;;;;;56.75;43.30;;;13.70;79.10;;;;;;4946993;29;20482;-63
2021/10/19 04:08:25;;;;;;;55.60;41.78;;;13.60;79.20;;;;;;4951869;29;20122;-63
2021/10/19 04:10:51;;;;;;;56.35;42.13;;;13.60;80.60;;;;;;4937364;29;20035;-62
2021/10/19 04:13:17;;;;;;;61.70;44.08;;;13.60;80.30;;;;;;4953504;29;20049;-63
2021/10/19 04:15:42;;;;;;;52.38;41.40;;;13.60;80.40;;;;;;4945994;29;20043;-62
2021/10/19 04:18:08;;;;;;;55.40;42.47;;;13.60;80.90;;;;;;4930335;29;20051;-62
2021/10/19 04:20:34;;;;;;;58.50;42.72;;;13.50;80.50;;;;;;4934719;29;20036;-62
2021/10/19 04:22:59;;;;;;;61.15;42.53;;;13.60;80.50;;;;;;4937921;29;20043;-63
2021/10/19 04:25:25;;;;;;;63.03;44.40;;;13.60;80.50;;;;;;4936495;29;20040;-63
2021/10/19 04:27:50;;;;;;;57.38;43.08;;;13.60;80.30;;;;;;4940054;29;20044;-63
2021/10/19 04:30:16;;;;;;;58.38;44.63;;;13.60;80.30;;;;;;4954725;29;20074;-63
2021/10/19 04:32:41;;;;;;;54.55;42.60;;;13.60;80.20;;;;;;4953646;28;20099;-63
2021/10/19 04:35:08;;;;;;;58.83;42.95;;;13.70;80.10;;;;;;4937294;29;20370;-63
2021/10/19 04:37:33;;;;;;;56.95;42.42;;;13.70;80.00;;;;;;4953467;29;20091;-63
2021/10/19 04:39:59;;;;;;;62.67;43.08;;;13.70;80.20;;;;;;4954418;29;20047;-63
2021/10/19 04:42:27;;;;;;;61.92;44.72;;;13.70;80.80;;;;;;4936487;29;20419;-63
2021/10/19 04:44:53;;;;;;;61.42;44.42;;;13.60;80.20;;;;;;4935181;29;20065;-63
2021/10/19 04:47:18;;;;;;;56.88;44.50;;;13.60;80.20;;;;;;4935296;29;20435;-63
2021/10/19 04:49:44;;;;;;;60.28;43.88;;;13.70;80.50;;;;;;4946643;29;20044;-63
2021/10/19 04:52:10;;;;;;;56.53;44.22;;;13.60;80.20;;;;;;4935303;29;20028;-63
2021/10/19 04:54:35;;;;;;;57.30;45.58;;;13.60;80.30;;;;;;4938639;29;20052;-63
2021/10/19 04:57:01;;;;;;;59.60;43.50;;;13.70;80.40;;;;;;4939046;29;20047;-63
2021/10/19 04:59:26;;;;;;;59.50;42.75;;;13.70;80.30;;;;;;4955276;29;20382;-63
2021/10/19 05:01:52;;;;;;;63.25;44.13;;;13.70;80.30;;;;;;4939761;29;20039;-63
2021/10/19 05:04:18;;;;;;;58.00;43.72;;;13.80;80.20;;;;;;4956825;29;20095;-63
2021/10/19 05:06:44;;;;;;;56.33;43.92;;;13.70;80.40;;;;;;4957722;29;20115;-63
2021/10/19 05:09:09;;;;;;;58.80;43.42;;;13.70;80.20;;;;;;4955522;29;20050;-63
2021/10/19 05:11:35;;;;;;;58.42;43.50;;;13.70;80.20;;;;;;4956698;29;20102;-63
2021/10/19 05:14:01;;;;;;;57.58;44.63;;;13.60;80.50;;;;;;4956691;29;20043;-63
2021/10/19 05:16:27;;;;;;;61.13;41.63;;;13.60;80.70;;;;;;4957047;29;20032;-63
2021/10/19 05:18:52;;;;;;;56.90;43.22;;;13.60;80.30;;;;;;4956208;29;20503;-63
2021/10/19 05:21:18;;;;;;;59.83;44.13;;;13.60;80.50;;;;;;4957489;29;20051;-63
2021/10/19 05:23:43;;;;;;;55.58;43.03;;;13.70;80.30;;;;;;4956591;29;20031;-63
2021/10/19 05:26:09;;;;;;;60.55;44.47;;;13.60;80.60;;;;;;4957792;29;20070;-63
2021/10/19 05:28:35;;;;;;;57.40;43.30;;;13.60;80.60;;;;;;4956770;29;20035;-63
2021/10/19 05:31:01;;;;;;;55.50;43.33;;;13.60;80.50;;;;;;4957737;29;20023;-63
2021/10/19 05:33:27;;;;;;;59.42;42.85;;;13.70;80.30;;;;;;4956225;29;20058;-63
2021/10/19 05:35:52;;;;;;;63.15;46.47;;;13.60;80.50;;;;;;4957351;29;20481;-63
2021/10/19 05:38:18;;;;;;;65.57;47.80;;;13.60;80.30;;;;;;4954484;29;20039;-63
2021/10/19 05:40:44;;;;;;;63.00;46.13;;;13.50;80.60;;;;;;4956815;28;20031;-63
2021/10/19 05:43:09;;;;;;;65.22;49.65;;;13.60;80.30;;;;;;4954608;29;20039;-63
2021/10/19 05:45:44;;;;;;;66.47;48.17;;;13.60;80.60;;;;;;4957019;29;20404;-63
2021/10/19 05:48:10;;;;;;;65.25;48.75;;;13.70;80.70;;;;;;4955898;29;20034;-63
2021/10/19 05:50:37;;;;;;;67.65;48.75;;;13.40;80.50;;;;;;4956973;29;20039;-63
2021/10/19 05:53:02;;;;;;;64.25;48.55;;;13.40;81.20;;;;;;4938699;29;20062;-63
2021/10/19 05:55:28;;;;;;;76.35;52.47;;;13.40;81.10;;;;;;4956968;29;20489;-63
2021/10/19 05:57:54;;;;;;;75.25;51.92;;;13.50;81.20;;;;;;4956184;29;20113;-63
2021/10/19 06:00:19;;;;;;;66.82;49.95;;;13.50;81.10;;;;;;4956953;29;20491;-63
2021/10/19 06:02:45;;;;;;;67.90;49.78;;;13.50;81.30;;;;;;4955727;29;20043;-63
2021/10/19 06:05:10;;;;;;;70.68;50.38;;;13.50;81.60;;;;;;4955888;28;20052;-63
2021/10/19 06:07:36;;;;;;;68.72;49.17;;;13.50;82.00;;;;;;4921219;29;20553;-63
2021/10/19 06:10:03;;;;;;;72.40;51.35;;;13.40;82.40;;;;;;4921556;29;20405;-63
2021/10/19 06:12:29;;;;;;;72.55;52.22;;;13.40;82.70;;;;;;4937539;29;20091;-63
2021/10/19 06:14:54;;;;;;;70.88;50.58;;;13.40;82.70;;;;;;4953000;29;20043;-63
2021/10/19 06:17:20;;;;;;;69.82;49.40;;;13.40;83.10;;;;;;4956581;29;20378;-63
2021/10/19 06:19:47;;;;;;;69.50;50.60;;;13.50;83.10;;;;;;4955274;29;20078;-63
2021/10/19 06:22:13;;;;;;;71.72;51.50;;;13.60;83.10;;;;;;4942265;29;20166;-63
2021/10/19 06:24:39;;;;;;;70.97;50.70;;;13.70;82.20;;;;;;4938616;29;20250;-63
2021/10/19 06:27:04;;;;;;;69.75;49.88;;;13.70;81.70;;;;;;4957053;28;20041;-63
2021/10/19 06:29:30;;;;;;;71.40;49.78;;;13.70;81.10;;;;;;4954729;28;20046;-63
2021/10/19 06:31:56;;;;;;;73.00;51.80;;;13.70;81.10;;;;;;4956042;28;20071;-63
2021/10/19 06:34:22;;;;;;;68.05;50.83;;;13.80;80.80;;;;;;4950451;28;20047;-63
2021/10/19 06:36:47;;;;;;;69.10;52.00;;;13.90;80.60;;;;;;4955668;28;20043;-63
2021/10/19 06:39:13;;;;;;;65.43;49.33;;;14.00;80.50;;;;;;4955096;28;20047;-63
2021/10/19 06:41:39;;;;;;;71.60;49.92;;;14.00;80.10;;;;;;4955841;28;20485;-63
2021/10/19 06:44:04;;;;;;;66.82;52.30;;;14.20;80.10;;;;;;4954774;28;20071;-63
2021/10/19 06:46:30;;;;;;;68.93;51.15;;;14.30;79.90;;;;;;4956519;28;20036;-64
2021/10/19 06:48:56;;;;;;;68.85;51.30;;;14.20;79.60;;;;;;4946521;29;20400;-63
2021/10/19 06:51:22;;;;;;;64.50;50.78;;;14.30;79.70;;;;;;4934793;29;20110;-64
2021/10/19 06:53:47;;;;;;;61.97;48.83;;;14.40;79.30;;;;;;4940903;29;20039;-63
2021/10/19 06:56:13;;;;;;;63.45;45.33;;;14.50;79.20;;;;;;4956096;29;20126;-63
2021/10/19 06:58:38;;;;;;;61.65;44.40;;;14.50;79.40;;;;;;4953311;28;20047;-63
2021/10/19 07:01:05;;;;;;;57.50;44.22;;;14.50;79.10;;;;;;4936951;29;20043;-63
2021/10/19 07:03:32;;;;;;;59.80;45.92;;;14.40;79.30;;;;;;4934428;29;20558;-63
2021/10/19 07:06:02;;;;;;;61.53;45.05;;;14.40;79.40;;;;;;4936525;29;20046;-63
2021/10/19 07:08:28;;;;;;;56.85;43.20;;;14.50;79.30;;;;;;4938758;29;20052;-63
2021/10/19 07:10:55;;;;;;;61.35;44.08;;;14.50;79.20;;;;;;4946594;29;20036;-62
2021/10/19 07:13:24;;;;;;;54.97;43.60;;;14.50;79.20;;;;;;4937227;29;20040;-62
2021/10/19 07:15:54;;;;;;;62.47;44.85;;;14.60;78.90;;;;;;4954566;28;20087;-62
2021/10/19 07:18:24;;;;;;;61.65;45.30;;;14.70;78.60;;;;;;4953900;29;20047;-62
2021/10/19 07:20:50;;;;;;;54.85;44.25;;;14.70;78.00;;;;;;4955441;29;20063;-62
2021/10/19 07:23:17;;;;;;;64.10;44.08;;;14.80;78.10;;;;;;4953920;29;20050;-62
2021/10/19 07:25:44;;;;;;;60.70;44.75;;;14.80;78.20;;;;;;4955225;29;20031;-62
2021/10/19 07:28:09;;;;;;;62.20;46.42;;;14.90;77.70;;;;;;4954591;29;20035;-63
2021/10/19 07:30:35;;;;;;;60.63;44.80;;;14.90;78.10;;;;;;4955054;29;20130;-62
2021/10/19 07:33:00;;;;;;;62.60;47.08;;;14.90;77.90;;;;;;4955066;29;20027;-63
2021/10/19 07:35:26;;;;;;;74.20;50.50;;;14.90;77.90;;;;;;4954167;28;20043;-62
2021/10/19 07:37:52;;;;;;;64.45;49.08;;;14.80;78.10;;;;;;4955148;29;20568;-63
2021/10/19 07:40:19;;;;;;;77.03;51.13;;;14.90;77.80;;;;;;4921206;29;20042;-63
2021/10/19 07:42:45;;;;;;;68.97;50.78;;;14.90;77.90;;;;;;4935867;29;20039;-62
2021/10/19 07:45:12;;;;;;;70.30;50.03;;;14.90;78.10;;;;;;4950507;29;20031;-62
2021/10/19 07:47:39;;;;;;;70.80;51.63;;;15.00;77.70;;;;;;4937678;29;20563;-62
2021/10/19 07:50:05;;;;;;;67.40;49.67;;;15.00;77.50;;;;;;4953927;29;20048;-62
2021/10/19 07:52:31;;;;;;;72.65;51.30;;;15.10;77.30;;;;;;4954940;29;20524;-62
2021/10/19 07:54:57;;;;;;;69.03;50.78;;;15.10;77.60;;;;;;4953689;29;20036;-62
2021/10/19 07:57:22;;;;;;;72.25;52.67;;;15.10;77.00;;;;;;4954844;29;20433;-62
2021/10/19 07:59:48;;;;;;;70.97;50.42;;;15.10;76.30;;;;;;4953157;29;20070;-63
2021/10/19 08:02:13;;;;;;;71.60;50.47;;;15.10;76.00;;;;;;4954879;29;20087;-63
2021/10/19 08:04:39;;;;;;;74.93;50.67;;;15.20;76.10;;;;;;4926867;29;20036;-62
2021/10/19 08:07:05;;;;;;;72.20;50.78;;;15.30;75.70;;;;;;4934339;29;20043;-62
2021/10/19 08:09:30;;;;;;;69.85;48.55;;;15.50;75.50;;;;;;4947537;29;20110;-62
2021/10/19 08:11:56;;;;;;;66.18;48.30;;;15.60;74.80;;;;;;4954667;29;20027;-64
2021/10/19 08:14:21;;;;;;;66.18;48.15;;;15.60;74.60;;;;;;4946513;29;20046;-63
2021/10/19 08:16:47;;;;;;;65.70;47.45;;;15.70;74.30;;;;;;4934224;29;20032;-63
2021/10/19 08:19:13;;;;;;;65.25;46.05;;;15.90;73.80;;;;;;4936451;29;20052;-63
2021/10/19 08:21:38;;;;;;;62.08;46.00;;;16.00;72.90;;;;;;4944187;29;20040;-63
2021/10/19 08:24:04;;;;;;;68.32;45.72;;;16.10;72.60;;;;;;4953501;29;20043;-63
2021/10/19 08:26:30;;;;;;;61.28;44.50;;;16.20;71.90;;;;;;4954805;29;20039;-63
2021/10/19 08:28:58;;;;;;;64.80;45.42;;;16.20;72.30;;;;;;4954585;28;20122;-63
2021/10/19 08:31:23;;;;;;;65.80;46.45;;;16.30;71.80;;;;;;4957414;29;20434;-63
2021/10/19 08:33:50;;;;;;;64.63;45.42;;;16.50;71.50;;;;;;4957522;29;20118;-63
2021/10/19 08:36:17;;;;;;;57.30;42.67;;;16.60;71.70;;;;;;4958628;29;20035;-63
2021/10/19 08:38:43;;;;;;;60.03;42.47;;;16.70;71.20;;;;;;4939860;29;20043;-63
2021/10/19 08:41:11;;;;;;;59.80;43.92;;;16.80;70.80;;;;;;4941217;29;20444;-63
2021/10/19 08:43:38;;;;;;;57.55;43.40;;;16.80;70.40;;;;;;4935930;29;20505;-63
2021/10/19 08:46:08;;;;;;;56.17;44.50;;;16.70;71.20;;;;;;4949017;29;20038;-63
2021/10/19 08:48:35;;;;;;;66.88;44.90;;;16.90;70.80;;;;;;4929740;29;20035;-63
2021/10/19 08:51:01;;;;;;;65.72;45.28;;;16.90;70.40;;;;;;4950054;29;20039;-63
2021/10/19 08:53:27;;;;;;;65.15;45.15;;;17.00;70.00;;;;;;4951722;29;20043;-63
2021/10/19 08:55:52;;;;;;;54.03;42.58;;;16.90;69.60;;;;;;4955419;29;20046;-63
2021/10/19 08:58:18;;;;;;;55.70;42.80;;;16.90;69.40;;;;;;4954742;29;20048;-63
2021/10/19 09:00:44;;;;;;;59.28;43.53;;;17.10;69.10;;;;;;4956402;29;20043;-63
2021/10/19 09:03:10;;;;;;;61.13;44.83;;;17.10;69.00;;;;;;4957988;29;20056;-63
2021/10/19 09:05:38;;;;;;;64.05;44.15;;;17.10;68.60;;;;;;4956697;29;20047;-63
2021/10/19 09:08:07;;;;;;;59.20;42.90;;;17.20;67.30;;;;;;4957816;29;20402;-63
2021/10/19 09:10:34;;;;;;;60.35;44.55;;;17.10;67.70;;;;;;4956750;29;20042;-63
2021/10/19 09:13:06;;;;;;;67.18;44.85;;;17.20;67.30;;;;;;4939649;29;20031;-63
2021/10/19 09:15:35;;;;;;;64.68;44.30;;;17.30;67.10;;;;;;4925644;29;20478;-63
2021/10/19 09:18:02;;;;;;;56.72;43.55;;;17.40;67.10;;;;;;4949880;28;20061;-63
2021/10/19 09:20:29;;;;;;;56.97;45.80;;;17.50;66.60;;;;;;4952401;29;20036;-63
2021/10/19 09:22:58;;;;;;;61.45;44.35;;;17.50;67.30;;;;;;4950179;28;20066;-63
2021/10/19 09:25:28;;;;;;;60.55;44.55;;;17.60;67.00;;;;;;4940282;29;20037;-63
2021/10/19 09:27:56;;;;;;;63.75;47.10;;;17.60;67.20;;;;;;4955436;29;20039;-63
2021/10/19 09:30:51;;;;;;;61.95;46.25;;;17.70;66.90;;;;;;4938443;29;20118;-63
2021/10/19 09:33:55;;;;;;;63.92;49.47;;;17.80;66.90;;;;;;4927860;29;20049;-63
2021/10/19 09:36:32;;;;;;;63.63;48.33;;;17.60;67.50;;;;;;4956238;29;20042;-63
2021/10/19 09:39:07;;;;;;;68.43;52.00;;;17.70;67.50;;;;;;4956640;28;20576;-63
2021/10/19 09:41:46;;;;;;;68.63;51.08;;;17.80;67.80;;;;;;4956125;29;20059;-63
2021/10/19 09:44:16;;;;;;;71.22;52.42;;;17.90;67.00;;;;;;4938856;29;20039;-63
2021/10/19 09:46:42;;;;;;;70.47;51.75;;;17.90;67.70;;;;;;4953405;29;20031;-63
2021/10/19 09:49:09;;;;;;;76.28;54.25;;;18.10;68.30;;;;;;4938517;29;20031;-63
2021/10/19 09:52:27;;;;;;;70.43;53.70;;;18.20;70.90;;;;;;4954906;29;20571;-63
2021/10/19 09:54:54;;;;;;;70.18;55.80;;;18.30;69.60;;;;;;4938886;29;20150;-63
2021/10/19 09:57:20;;;;;;;70.18;55.38;;;18.20;71.80;;;;;;4955889;28;20165;-63
2021/10/19 09:59:46;;;;;;;71.43;55.40;;;18.20;72.10;;;;;;4956028;28;20067;-63
2021/10/19 10:02:14;;;;;;;72.97;56.10;;;18.20;72.70;;;;;;4954527;29;20046;-64
2021/10/19 10:04:42;;;;;;;75.45;56.28;;;;;;;;;;4954768;29;20089;-63
2021/10/19 10:07:11;;;;;;;73.80;55.17;;;18.30;74.90;;;;;;4945517;28;20035;-64
2021/10/19 10:09:38;;;;;;;76.30;57.55;;;;;;;;;;4936678;29;20051;-63
2021/10/19 10:12:07;;;;;;;75.50;56.60;;;18.30;80.70;;;;;;4944934;29;20086;-63
2021/10/19 10:14:46;;;;;;;77.85;58.30;;;18.60;68.50;;;;;;4956074;29;20409;-63
2021/10/19 10:17:12;;;;;;;79.18;57.85;;;18.80;65.20;;;;;;4954804;29;20047;-64
2021/10/19 10:19:39;;;;;;;80.20;58.67;;;;;;;;;;4956497;29;20058;-64
2021/10/19 10:22:22;;;;;;;73.65;57.70;;;;;;;;;;4955052;29;20035;-62
2021/10/19 10:25:05;;;;;;;75.57;57.33;;;18.80;52.80;;;;;;4937847;29;20043;-64
2021/10/19 10:27:31;;;;;;;73.53;55.67;;;18.90;53.50;;;;;;4954879;29;20502;-63
2021/10/19 10:29:56;;;;;;;78.53;59.50;;;19.00;54.10;;;;;;4937242;29;20453;-63
2021/10/19 10:32:25;;;;;;;73.65;56.33;;;19.00;53.40;;;;;;4953573;29;20043;-64
2021/10/19 10:35:10;;;;;;;74.72;55.92;;;18.90;54.40;;;;;;4954452;29;20492;-64
2021/10/19 10:37:45;;;;;;;72.65;57.58;;;19.20;52.40;;;;;;4955110;29;20062;-63
2021/10/19 10:40:25;;;;;;;78.25;59.00;;;19.20;53.20;;;;;;4938165;29;20493;-63
2021/10/19 10:42:51;;;;;;;71.38;53.90;;;19.20;57.80;;;;;;4937553;29;20045;-64
2021/10/19 10:45:17;;;;;;;71.20;53.50;;;19.10;51.60;;;;;;4936595;29;20174;-64
2021/10/19 10:48:06;;;;;;;73.85;54.15;;;19.00;50.90;;;;;;4937115;29;20448;-64
2021/10/19 10:50:37;;;;;;;72.30;53.55;;;19.20;50.40;;;;;;4931076;28;20126;-64
2021/10/19 10:53:07;;;;;;;70.93;54.53;;;19.10;50.40;;;;;;4954869;29;20050;-64
2021/10/19 10:55:41;;;;;;;71.60;55.05;;;19.10;50.90;;;;;;4956155;29;20323;-64
2021/10/19 10:58:08;;;;;;;77.35;53.53;;;19.00;50.80;;;;;;4940734;28;20520;-64
2021/10/19 11:00:34;;;;;;;70.05;53.13;;;18.90;50.80;;;;;;4936671;29;20048;-64
2021/10/19 11:03:09;;;;;;;72.55;54.67;;;18.80;52.10;;;;;;4949346;29;20043;-64
2021/10/19 11:05:37;;;;;;;69.68;54.38;;;18.90;51.10;;;;;;4956038;29;20031;-64
2021/10/19 11:08:04;;;;;;;70.05;53.95;;;18.90;51.90;;;;;;4954526;29;20039;-64
2021/10/19 11:10:29;;;;;;;68.43;50.58;;;19.00;51.60;;;;;;4938387;29;20508;-64
2021/10/19 11:16:39;;;;;;;71.75;50.60;;;19.20;48.60;;;;;;4947487;29;20482;-64
2021/10/19 11:19:16;;;;;;;68.00;52.75;;;19.40;48.80;;;;;;4936323;29;20059;-63
2021/10/19 11:21:42;;;;;;;70.30;50.50;;;19.30;48.70;;;;;;4937208;29;20046;-64
2021/10/19 11:24:08;;;;;;;67.65;53.72;;;19.50;49.80;;;;;;4955497;29;20035;-64
2021/10/19 11:26:50;;;;;;;71.68;55.72;;;19.30;50.10;;;;;;4955192;29;20058;-64
2021/10/19 11:29:17;;;;;;;72.82;54.83;;;19.50;50.00;;;;;;4939978;29;20501;-63
2021/10/19 11:31:43;;;;;;;73.15;55.20;;;19.30;50.40;;;;;;4936019;29;20557;-64
2021/10/19 11:34:09;;;;;;;76.68;55.85;;;19.40;50.50;;;;;;4951784;29;20047;-64
2021/10/19 11:36:35;;;;;;;67.05;52.22;;;19.20;49.90;;;;;;4938298;29;20047;-64
2021/10/19 11:39:11;;;;;;;73.30;53.28;;;19.40;51.00;;;;;;4954211;28;20047;-64
2021/10/19 11:41:38;;;;;;;68.97;52.60;;;19.50;49.80;;;;;;4955300;29;20143;-64
2021/10/19 11:44:06;;;;;;;69.18;52.58;;;19.50;50.40;;;;;;4953288;28;20405;-64
2021/10/19 11:46:37;;;;;;;67.68;52.65;;;19.50;50.30;;;;;;4951335;28;20492;-64
2021/10/19 11:49:15;;;;;;;70.88;52.17;;;19.60;50.10;;;;;;4953717;29;20401;-64
2021/10/19 11:51:45;;;;;;;70.18;53.55;;;19.50;49.10;;;;;;4955102;29;20039;-64
2021/10/19 11:54:13;;;;;;;69.97;52.30;;;19.50;49.00;;;;;;4954746;28;20079;-64
2021/10/19 11:56:39;;;;;;;73.40;54.58;;;19.60;49.30;;;;;;4955224;29;20031;-64
2021/10/19 11:59:07;;;;;;;74.88;56.25;;;19.70;49.80;;;;;;4953681;29;20101;-64
2021/10/19 12:01:42;;;;;;;76.00;55.63;;;19.70;49.00;;;;;;4953658;29;20039;-72
2021/10/19 12:04:13;;;;;;;72.32;54.20;;;19.70;48.80;;;;;;4953416;29;20127;-78
2021/10/19 12:06:44;;;;;;;74.88;54.97;;;19.80;49.00;;;;;;4951844;29;20038;-72
2021/10/19 12:09:16;;;;;;;72.25;54.25;;;20.20;49.60;;;;;;4953825;29;20072;-67
2021/10/19 12:11:54;;;;;;;69.00;53.55;;;20.40;46.70;;;;;;4954988;29;20062;-72
2021/10/19 12:14:34;;;;;;;74.47;55.10;;;20.40;45.20;;;;;;4937164;29;20453;-72
2021/10/19 12:17:07;;;;;;;72.20;53.00;;;20.40;43.10;;;;;;4935750;29;20112;-70
2021/10/19 12:19:36;;;;;;;76.37;59.20;;;20.50;36.20;;;;;;4932700;29;20413;-71
2021/10/19 12:22:06;;;;;;;78.60;59.08;;;20.60;36.40;;;;;;4939246;29;20071;-61
2021/10/19 12:24:40;;;;;;;78.68;59.15;;;20.50;36.50;;;;;;4940689;29;20046;-61
2021/10/19 12:27:08;;;;;;;71.05;55.67;;;20.50;36.80;;;;;;4933857;29;20107;-60
2021/10/19 12:29:35;;;;;;;68.47;54.53;;;20.50;37.20;;;;;;4949110;28;20044;-62
2021/10/19 12:32:04;;;;;;;78.80;59.63;;;20.60;36.80;;;;;;4938739;28;20047;-69
2021/10/19 12:34:31;;;;;;;79.25;59.00;;;20.40;36.60;;;;;;4945736;28;20071;-59